createdAt,value
2022-11-16T00:01:43.914Z,8.73
2022-11-16T00:04:12.104Z,10.98
2022-11-16T00:06:39.910Z,10.95
2022-11-16T00:09:28.610Z,16.23
2022-11-16T00:12:01.420Z,11.23
2022-11-16T00:14:32.101Z,13.52
2022-11-16T00:17:00.067Z,12.27
2022-11-16T00:19:27.412Z,9.15
2022-11-16T00:24:23.299Z,11.02
2022-11-16T00:26:52.934Z,10.20
2022-11-16T00:29:23.155Z,15.63
2022-11-16T00:31:50.657Z,14.45
2022-11-16T00:34:18.388Z,9.10
2022-11-16T00:36:45.407Z,11.60
2022-11-16T00:39:13.510Z,8.30
2022-11-16T00:41:40.961Z,11.63
2022-11-16T00:44:09.304Z,14.13
2022-11-16T00:49:02.898Z,9.95
2022-11-16T00:51:29.616Z,8.93
2022-11-16T00:53:56.589Z,9.75
2022-11-16T00:56:23.616Z,9.20
2022-11-16T00:58:50.459Z,11.98
2022-11-16T01:01:17.798Z,6.03
2022-11-16T01:03:44.632Z,10.07
2022-11-16T01:06:14.299Z,10.00
2022-11-16T01:08:42.511Z,9.07
2022-11-16T01:11:29.277Z,9.70
2022-11-16T01:13:58.804Z,9.65
2022-11-16T01:16:25.524Z,9.00
2022-11-16T01:18:54.758Z,8.13
2022-11-16T01:21:22.843Z,8.90
2022-11-16T01:23:49.874Z,11.55
2022-11-16T01:26:17.050Z,8.35
2022-11-16T01:28:44.499Z,8.23
2022-11-16T01:31:12.843Z,9.18
2022-11-16T01:33:40.482Z,11.80
2022-11-16T01:36:14.814Z,7.95
2022-11-16T01:38:43.440Z,9.68
2022-11-16T01:41:15.477Z,9.32
2022-11-16T01:43:58.546Z,8.13
2022-11-16T01:46:30.426Z,10.32
2022-11-16T01:49:11.067Z,10.77
2022-11-16T01:51:39.742Z,10.25
2022-11-16T01:54:09.864Z,9.90
2022-11-16T01:56:41.372Z,10.45
2022-11-16T01:59:17.336Z,5.97
2022-11-16T02:01:44.575Z,9.38
2022-11-16T02:04:12.407Z,8.40
2022-11-16T02:07:02.264Z,8.07
2022-11-16T02:09:54.912Z,9.48
2022-11-16T02:12:44.195Z,7.05
2022-11-16T02:15:19.925Z,10.10
2022-11-16T02:18:07.176Z,10.40
2022-11-16T02:21:03.821Z,10.60
2022-11-16T02:23:49.595Z,11.75
2022-11-16T02:26:28.511Z,8.02
2022-11-16T02:29:20.768Z,9.18
2022-11-16T02:31:59.118Z,7.32
2022-11-16T02:34:30.379Z,7.45
2022-11-16T02:36:59.669Z,8.60
2022-11-16T02:39:29.521Z,7.20
2022-11-16T02:41:58.918Z,7.32
2022-11-16T02:44:35.129Z,9.02
2022-11-16T02:47:05.533Z,8.60
2022-11-16T02:49:36.860Z,5.55
2022-11-16T02:52:04.791Z,11.00
2022-11-16T02:54:31.594Z,12.57
2022-11-16T02:57:04.324Z,8.65
2022-11-16T02:59:35.344Z,9.80
2022-11-16T03:02:24.042Z,7.40
2022-11-16T03:07:34.485Z,10.50
2022-11-16T03:10:02.060Z,9.23
2022-11-16T03:12:32.668Z,10.55
2022-11-16T03:15:02.549Z,6.47
2022-11-16T03:17:43.500Z,7.38
2022-11-16T03:20:22.392Z,6.50
2022-11-16T03:22:52.517Z,8.23
2022-11-16T03:25:22.565Z,13.88
2022-11-16T03:28:08.326Z,6.78
2022-11-16T03:30:47.983Z,7.55
2022-11-16T03:33:18.171Z,5.57
2022-11-16T03:35:55.740Z,6.53
2022-11-16T03:38:24.493Z,8.45
2022-11-16T03:40:52.000Z,9.63
2022-11-16T03:43:20.451Z,6.72
2022-11-16T03:45:47.866Z,6.43
2022-11-16T03:48:14.695Z,5.38
2022-11-16T03:50:42.657Z,7.00
2022-11-16T03:53:09.847Z,6.57
2022-11-16T03:55:37.936Z,7.47
2022-11-16T03:58:05.275Z,5.93
2022-11-16T04:00:33.296Z,6.45
2022-11-16T04:03:06.612Z,6.53
2022-11-16T04:05:51.771Z,5.28
2022-11-16T04:08:37.347Z,6.18
2022-11-16T04:11:23.425Z,8.45
2022-11-16T04:14:10.134Z,8.10
2022-11-16T04:16:58.187Z,6.63
2022-11-16T04:19:43.497Z,8.35
2022-11-16T04:22:38.353Z,6.63
2022-11-16T04:25:26.496Z,6.93
2022-11-16T04:28:13.028Z,5.90
2022-11-16T04:33:49.808Z,5.53
2022-11-16T04:36:36.888Z,6.88
2022-11-16T04:39:04.178Z,8.32
2022-11-16T04:41:50.606Z,6.97
2022-11-16T04:44:18.658Z,7.57
2022-11-16T04:47:05.398Z,10.05
2022-11-16T04:49:33.628Z,7.78
2022-11-16T04:54:29.809Z,7.05
2022-11-16T04:59:24.323Z,9.75
2022-11-16T05:02:10.554Z,12.65
2022-11-16T05:04:48.622Z,13.55
2022-11-16T05:07:16.425Z,15.95
2022-11-16T05:09:47.248Z,17.48
2022-11-16T05:12:17.553Z,16.13
2022-11-16T05:14:46.686Z,16.77
2022-11-16T05:17:15.720Z,15.68
2022-11-16T05:20:01.345Z,17.88
2022-11-16T05:22:32.966Z,18.67
2022-11-16T05:25:00.271Z,17.23
2022-11-16T05:27:28.416Z,20.85
2022-11-16T05:29:56.548Z,16.85
2022-11-16T05:32:25.848Z,19.60
2022-11-16T05:34:58.812Z,20.52
2022-11-16T05:37:26.949Z,20.95
2022-11-16T05:39:54.808Z,20.98
2022-11-16T05:42:25.625Z,19.15
2022-11-16T05:47:20.601Z,22.50
2022-11-16T05:49:47.779Z,21.30
2022-11-16T05:52:14.752Z,18.42
2022-11-16T05:54:44.392Z,18.65
2022-11-16T05:57:11.366Z,25.10
2022-11-16T05:59:38.786Z,19.48
2022-11-16T06:04:34.304Z,18.02
2022-11-16T06:07:01.425Z,22.70
2022-11-16T06:09:32.221Z,19.40
2022-11-16T06:12:06.221Z,19.98
2022-11-16T06:14:33.062Z,17.92
2022-11-16T06:16:59.781Z,22.15
2022-11-16T06:19:32.085Z,17.92
2022-11-16T06:21:59.404Z,20.83
2022-11-16T06:24:28.013Z,21.33
2022-11-16T06:26:55.026Z,18.77
2022-11-16T06:29:22.808Z,22.30
2022-11-16T06:31:52.299Z,19.27
2022-11-16T06:34:19.092Z,18.20
2022-11-16T06:36:45.885Z,20.20
2022-11-16T06:39:13.646Z,26.38
2022-11-16T06:41:41.615Z,24.40
2022-11-16T06:44:10.321Z,23.42
2022-11-16T06:46:41.289Z,24.83
2022-11-16T06:49:08.091Z,23.10
2022-11-16T06:51:36.634Z,24.65
2022-11-16T06:54:04.094Z,23.65
2022-11-16T06:56:30.885Z,29.92
2022-11-16T06:58:58.591Z,26.70
2022-11-16T07:01:27.710Z,30.38
2022-11-16T07:04:00.145Z,26.02
2022-11-16T07:06:27.902Z,24.70
2022-11-16T07:08:55.603Z,21.38
2022-11-16T07:11:26.145Z,24.80
2022-11-16T07:13:52.970Z,24.80
2022-11-16T07:16:21.298Z,24.35
2022-11-16T07:18:59.265Z,23.08
2022-11-16T07:21:28.931Z,26.40
2022-11-16T07:23:56.731Z,23.45
2022-11-16T07:26:23.952Z,23.80
2022-11-16T07:28:59.090Z,23.27
2022-11-16T07:31:26.753Z,24.52
2022-11-16T07:34:11.797Z,22.00
2022-11-16T07:36:50.104Z,22.48
2022-11-16T07:41:46.721Z,26.77
2022-11-16T07:44:23.869Z,25.52
2022-11-16T07:47:03.734Z,22.08
2022-11-16T07:49:33.892Z,25.90
2022-11-16T07:52:10.106Z,24.98
2022-11-16T07:54:46.740Z,23.92
2022-11-16T07:57:14.851Z,26.20
2022-11-16T07:59:42.373Z,27.08
2022-11-16T08:02:12.305Z,23.75
2022-11-16T08:04:40.847Z,24.15
2022-11-16T08:07:08.645Z,21.45
2022-11-16T08:09:41.938Z,23.15
2022-11-16T08:12:13.161Z,29.20
2022-11-16T08:14:40.519Z,27.45
2022-11-16T08:17:08.311Z,24.00
2022-11-16T08:19:36.623Z,21.95
2022-11-16T08:22:03.788Z,165.82
2022-11-16T08:24:32.857Z,68.53
2022-11-16T08:26:59.773Z,46.35
2022-11-16T08:31:56.151Z,31.42
2022-11-16T08:34:23.305Z,26.70
2022-11-16T08:36:54.612Z,26.75
2022-11-16T08:39:26.991Z,25.25
2022-11-16T08:41:53.951Z,23.67
2022-11-16T08:44:20.715Z,26.40
2022-11-16T08:46:51.673Z,26.35
2022-11-16T08:49:38.430Z,25.50
2022-11-16T08:52:05.347Z,21.35
2022-11-16T08:54:33.357Z,25.33
2022-11-16T08:57:00.105Z,25.60
2022-11-16T08:59:29.299Z,25.70
2022-11-16T09:02:03.169Z,29.58
2022-11-16T09:04:35.677Z,35.47
2022-11-16T09:07:03.663Z,60.47
2022-11-16T09:09:30.385Z,40.72
2022-11-16T09:11:57.155Z,32.30
2022-11-16T09:14:23.871Z,29.85
2022-11-16T09:16:50.550Z,24.20
2022-11-16T09:19:17.602Z,27.27
2022-11-16T09:21:45.556Z,27.63
2022-11-16T09:24:12.572Z,19.77
2022-11-16T09:26:39.292Z,21.23
2022-11-16T09:29:05.988Z,28.88
2022-11-16T09:31:34.756Z,36.85
2022-11-16T09:34:02.744Z,27.10
2022-11-16T09:36:30.273Z,26.35
2022-11-16T09:42:03.700Z,22.85
2022-11-16T09:45:08.324Z,22.05
2022-11-16T09:47:45.156Z,22.80
2022-11-16T09:50:49.811Z,20.25
2022-11-16T09:53:53.973Z,19.70
2022-11-16T09:56:26.093Z,19.65
2022-11-16T09:59:17.948Z,23.33
2022-11-16T10:01:48.083Z,26.92
2022-11-16T10:04:24.575Z,28.20
2022-11-16T10:07:22.493Z,30.02
2022-11-16T10:09:49.726Z,25.77
2022-11-16T10:12:43.535Z,23.23
2022-11-16T10:15:42.135Z,27.23
2022-11-16T10:19:02.930Z,23.98
2022-11-16T10:21:37.305Z,20.90
2022-11-16T10:24:29.896Z,25.65
2022-11-16T10:27:07.935Z,21.05
2022-11-16T10:29:46.774Z,20.00
2022-11-16T10:32:45.724Z,26.73
2022-11-16T10:35:12.361Z,24.63
2022-11-16T10:37:48.758Z,21.60
2022-11-16T10:40:25.945Z,19.98
2022-11-16T10:43:10.504Z,24.85
2022-11-16T10:45:43.854Z,26.33
2022-11-16T10:48:39.589Z,23.35
2022-11-16T10:51:08.607Z,26.95
2022-11-16T10:53:40.537Z,27.23
2022-11-16T10:56:30.135Z,25.48
2022-11-16T10:59:02.517Z,23.67
2022-11-16T11:01:41.616Z,25.90
2022-11-16T11:04:22.050Z,20.65
2022-11-16T11:06:54.908Z,27.73
2022-11-16T11:09:27.800Z,29.05
2022-11-16T11:12:41.077Z,31.27
2022-11-16T11:15:26.495Z,32.08
2022-11-16T11:18:15.620Z,32.38
2022-11-16T11:20:45.613Z,24.05
2022-11-16T11:23:16.718Z,24.63
2022-11-16T11:25:58.162Z,25.85
2022-11-16T11:28:28.493Z,22.00
2022-11-16T11:31:27.797Z,19.17
2022-11-16T11:34:12.098Z,28.80
2022-11-16T11:36:55.479Z,30.13
2022-11-16T11:39:22.134Z,22.13
2022-11-16T11:42:14.900Z,19.52
2022-11-16T11:44:51.835Z,18.63
2022-11-16T11:47:57.428Z,19.65
2022-11-16T11:50:53.001Z,21.38
2022-11-16T11:53:45.428Z,18.35
2022-11-16T11:56:14.365Z,20.67
2022-11-16T11:58:42.223Z,22.15
2022-11-16T12:01:26.993Z,22.63
2022-11-16T12:04:36.829Z,23.15
2022-11-16T12:09:51.670Z,20.92
2022-11-16T12:12:45.530Z,24.85
2022-11-16T12:15:30.422Z,25.27
2022-11-16T12:18:09.748Z,23.83
2022-11-16T12:21:13.015Z,22.38
2022-11-16T12:23:59.427Z,26.00
2022-11-16T12:26:49.836Z,26.42
2022-11-16T12:29:26.875Z,27.77
2022-11-16T12:32:15.119Z,18.77
2022-11-16T12:35:19.251Z,23.92
2022-11-16T12:38:21.796Z,23.45
2022-11-16T12:41:16.345Z,23.00
2022-11-16T12:44:04.794Z,22.48
2022-11-16T12:46:43.617Z,25.75
2022-11-16T12:49:31.339Z,26.55
2022-11-16T12:52:17.364Z,18.10
2022-11-16T12:55:24.749Z,20.27
2022-11-16T12:58:13.737Z,19.52
2022-11-16T13:00:43.417Z,25.40
2022-11-16T13:03:21.072Z,20.77
2022-11-16T13:06:07.423Z,18.80
2022-11-16T13:08:40.251Z,16.98
2022-11-16T13:11:14.073Z,15.70
2022-11-16T13:13:42.400Z,18.80
2022-11-16T13:16:10.736Z,16.88
2022-11-16T13:18:41.537Z,19.65
2022-11-16T13:21:34.113Z,25.20
2022-11-16T13:24:12.716Z,21.90
2022-11-16T13:26:44.049Z,20.05
2022-11-16T13:29:37.879Z,22.98
2022-11-16T13:32:14.366Z,23.63
2022-11-16T13:34:41.488Z,19.42
2022-11-16T13:37:36.275Z,19.23
2022-11-16T13:40:03.438Z,18.58
2022-11-16T13:42:57.897Z,23.15
2022-11-16T13:45:26.987Z,22.20
2022-11-16T13:47:57.148Z,24.00
2022-11-16T13:50:37.490Z,20.08
2022-11-16T13:55:57.789Z,24.20
2022-11-16T13:58:25.989Z,27.13
2022-11-16T14:01:00.207Z,24.35
2022-11-16T14:03:30.854Z,21.70
2022-11-16T14:05:57.751Z,23.70
2022-11-16T14:08:24.367Z,31.10
2022-11-16T14:10:51.051Z,34.80
2022-11-16T14:13:36.398Z,35.03
2022-11-16T14:16:19.306Z,29.88
2022-11-16T14:18:46.934Z,28.45
2022-11-16T14:21:19.564Z,23.67
2022-11-16T14:23:58.372Z,24.30
2022-11-16T14:26:46.868Z,27.52
2022-11-16T14:29:31.709Z,31.52
2022-11-16T14:32:01.787Z,26.67
2022-11-16T14:34:56.811Z,22.95
2022-11-16T14:37:24.401Z,23.25
2022-11-16T14:39:53.188Z,23.23
2022-11-16T14:42:29.895Z,21.52
2022-11-16T14:45:11.868Z,21.30
2022-11-16T14:47:39.021Z,25.52
2022-11-16T14:50:18.569Z,24.35
2022-11-16T14:52:48.810Z,23.40
2022-11-16T14:55:21.500Z,22.52
2022-11-16T14:57:48.379Z,24.65
2022-11-16T15:00:18.163Z,20.58
2022-11-16T15:02:53.642Z,23.23
2022-11-16T15:05:28.664Z,20.42
2022-11-16T15:07:58.764Z,28.63
2022-11-16T15:10:28.443Z,22.00
2022-11-16T15:12:57.701Z,23.92
2022-11-16T15:15:27.977Z,27.63
2022-11-16T15:18:00.772Z,22.98
2022-11-16T15:20:31.056Z,26.73
2022-11-16T15:22:59.788Z,24.00
2022-11-16T15:25:31.091Z,29.92
2022-11-16T15:28:01.177Z,24.05
2022-11-16T15:30:37.390Z,28.25
2022-11-16T15:33:10.173Z,27.13
2022-11-16T15:35:37.651Z,29.35
2022-11-16T15:38:22.790Z,31.13
2022-11-16T15:40:54.962Z,31.00
2022-11-16T15:43:25.124Z,30.63
2022-11-16T15:45:52.876Z,34.92
2022-11-16T15:48:24.977Z,35.95
2022-11-16T15:51:03.168Z,44.25
2022-11-16T15:53:55.310Z,46.40
2022-11-16T15:56:32.943Z,48.47
2022-11-16T15:59:09.383Z,105.35
2022-11-16T16:01:42.733Z,90.65
2022-11-16T16:04:15.769Z,46.92
2022-11-16T16:06:52.100Z,50.60
2022-11-16T16:09:24.928Z,57.70
2022-11-16T16:11:53.618Z,51.53
2022-11-16T16:14:28.678Z,48.53
2022-11-16T16:17:00.464Z,54.10
2022-11-16T16:19:31.959Z,54.47
2022-11-16T16:21:59.617Z,47.05
2022-11-16T16:24:40.975Z,43.00
2022-11-16T16:27:19.637Z,54.60
2022-11-16T16:29:48.095Z,51.25
2022-11-16T16:32:25.627Z,48.70
2022-11-16T16:34:54.128Z,45.45
2022-11-16T16:37:21.056Z,41.47
2022-11-16T16:39:47.875Z,36.72
2022-11-16T16:42:17.035Z,63.92
2022-11-16T16:44:45.440Z,33.25
2022-11-16T16:47:12.614Z,40.65
2022-11-16T16:49:39.741Z,53.28
2022-11-16T16:52:07.721Z,50.72
2022-11-16T16:54:34.483Z,53.03
2022-11-16T16:57:03.990Z,52.78
2022-11-16T16:59:30.780Z,73.82
2022-11-16T17:01:58.725Z,48.63
2022-11-16T17:04:25.671Z,68.40
2022-11-16T17:06:53.519Z,85.22
2022-11-16T17:09:20.585Z,86.25
2022-11-16T17:11:47.734Z,32.70
2022-11-16T17:14:14.546Z,45.13
2022-11-16T17:16:41.403Z,30.85
2022-11-16T17:19:08.069Z,55.75
2022-11-16T17:21:34.741Z,191.40
2022-11-16T17:24:01.547Z,137.07
2022-11-16T17:26:29.531Z,56.65
2022-11-16T17:28:57.318Z,57.30
2022-11-16T17:31:25.635Z,47.97
2022-11-16T17:33:52.342Z,41.78
2022-11-16T17:36:19.406Z,47.55
2022-11-16T17:38:46.129Z,43.75
2022-11-16T17:41:18.261Z,33.42
2022-11-16T17:43:46.440Z,52.80
2022-11-16T17:46:15.584Z,38.17
2022-11-16T17:48:44.193Z,41.45
2022-11-16T17:51:11.831Z,44.92
2022-11-16T17:53:39.924Z,45.92
2022-11-16T17:56:07.645Z,40.08
2022-11-16T17:58:34.437Z,53.60
2022-11-16T18:01:01.309Z,43.45
2022-11-16T18:03:30.809Z,30.63
2022-11-16T18:06:18.738Z,31.42
2022-11-16T18:08:45.785Z,19.35
2022-11-16T18:11:17.979Z,22.58
2022-11-16T18:13:45.598Z,20.73
2022-11-16T18:16:13.795Z,17.95
2022-11-16T18:18:41.441Z,17.25
2022-11-16T18:21:09.540Z,26.80
2022-11-16T18:23:37.810Z,27.98
2022-11-16T18:26:12.628Z,27.60
2022-11-16T18:28:39.707Z,29.05
2022-11-16T18:31:08.630Z,29.95
2022-11-16T18:33:37.296Z,26.30
2022-11-16T18:36:05.875Z,15.00
2022-11-16T18:38:33.179Z,14.85
2022-11-16T18:43:54.803Z,26.08
2022-11-16T18:46:25.007Z,27.52
2022-11-16T18:48:51.984Z,26.77
2022-11-16T18:51:19.968Z,28.25
2022-11-16T18:53:47.100Z,24.88
2022-11-16T18:56:14.044Z,14.48
2022-11-16T18:58:51.482Z,17.42
2022-11-16T19:01:22.100Z,15.75
2022-11-16T19:03:49.348Z,17.63
2022-11-16T19:06:17.575Z,11.38
2022-11-16T19:08:49.025Z,13.93
2022-11-16T19:11:20.777Z,10.75
2022-11-16T19:13:56.403Z,17.50
2022-11-16T19:16:24.315Z,16.33
2022-11-16T19:18:51.063Z,18.15
2022-11-16T19:21:18.548Z,18.38
2022-11-16T19:23:47.348Z,17.90
2022-11-16T19:26:15.773Z,22.00
2022-11-16T19:28:44.415Z,22.35
2022-11-16T19:31:22.571Z,15.65
2022-11-16T19:33:57.494Z,18.13
2022-11-16T19:36:25.305Z,24.30
2022-11-16T19:38:52.476Z,16.10
2022-11-16T19:41:22.878Z,15.50
2022-11-16T19:43:52.596Z,17.63
2022-11-16T19:46:21.377Z,12.60
2022-11-16T19:48:49.407Z,21.88
2022-11-16T19:51:23.626Z,11.15
2022-11-16T19:53:50.606Z,12.82
2022-11-16T19:56:19.237Z,17.30
2022-11-16T19:58:46.594Z,10.45
2022-11-16T20:03:42.190Z,24.98
2022-11-16T20:08:38.148Z,11.23
2022-11-16T20:11:22.395Z,9.45
2022-11-16T20:13:50.523Z,6.50
2022-11-16T20:16:19.647Z,11.13
2022-11-16T20:18:47.513Z,9.43
2022-11-16T20:21:21.324Z,8.80
2022-11-16T20:23:48.012Z,9.30
2022-11-16T20:26:15.231Z,10.30
2022-11-16T20:28:43.259Z,14.85
2022-11-16T20:31:14.884Z,27.88
2022-11-16T20:33:42.293Z,18.45
2022-11-16T20:36:11.381Z,12.65
2022-11-16T20:38:39.179Z,13.90
2022-11-16T20:41:17.534Z,15.52
2022-11-16T20:43:45.402Z,17.20
2022-11-16T20:46:14.540Z,9.43
2022-11-16T20:48:45.485Z,15.80
2022-11-16T20:51:15.156Z,14.20
2022-11-16T20:53:41.864Z,10.63
2022-11-16T20:56:10.200Z,12.48
2022-11-16T20:58:37.277Z,11.07
2022-11-16T21:01:06.904Z,20.27
2022-11-16T21:03:34.418Z,17.83
2022-11-16T21:06:01.608Z,14.52
2022-11-16T21:08:31.445Z,15.70
2022-11-16T21:10:58.357Z,11.55
2022-11-16T21:13:43.527Z,19.63
2022-11-16T21:16:12.364Z,15.27
2022-11-16T21:18:40.101Z,15.23
2022-11-16T21:21:13.596Z,8.25
2022-11-16T21:23:51.304Z,15.02
2022-11-16T21:26:29.039Z,12.73
2022-11-16T21:28:57.053Z,10.05
2022-11-16T21:31:29.688Z,15.05
2022-11-16T21:33:57.194Z,8.45
2022-11-16T21:36:26.485Z,8.85
2022-11-16T21:38:53.530Z,10.65
2022-11-16T21:41:21.395Z,8.48
2022-11-16T21:43:48.054Z,7.22
2022-11-16T21:46:20.544Z,6.70
2022-11-16T21:48:48.141Z,3.92
2022-11-16T21:51:17.368Z,3.97
2022-11-16T21:53:44.136Z,4.13
2022-11-16T21:56:19.760Z,4.38
2022-11-16T21:58:46.981Z,6.15
2022-11-16T22:01:15.986Z,4.45
2022-11-16T22:03:43.179Z,8.20
2022-11-16T22:06:31.940Z,4.57
2022-11-16T22:08:59.007Z,3.10
2022-11-16T22:11:25.995Z,7.13
2022-11-16T22:13:52.872Z,7.05
2022-11-16T22:16:21.355Z,5.50
2022-11-16T22:18:48.024Z,5.50
2022-11-16T22:21:14.716Z,5.35
2022-11-16T22:23:41.911Z,3.33
2022-11-16T22:28:37.389Z,4.75
2022-11-16T22:31:12.009Z,5.53
2022-11-16T22:33:39.596Z,5.88
2022-11-16T22:36:09.945Z,5.93
2022-11-16T22:38:37.612Z,7.82
2022-11-16T22:41:04.782Z,6.03
2022-11-16T22:43:32.350Z,9.38
2022-11-16T22:46:01.157Z,6.53
2022-11-16T22:48:32.555Z,3.13
2022-11-16T22:51:19.685Z,8.75
2022-11-16T22:53:46.432Z,6.32
2022-11-16T22:56:13.518Z,8.45
2022-11-16T22:58:40.278Z,6.00
2022-11-16T23:01:08.342Z,7.50
2022-11-16T23:03:36.081Z,8.95
2022-11-16T23:06:04.096Z,10.45
2022-11-16T23:08:30.846Z,6.03
2022-11-16T23:11:30.594Z,5.10
2022-11-16T23:14:16.848Z,6.88
2022-11-16T23:16:44.074Z,9.60
2022-11-16T23:19:32.462Z,11.85
2022-11-16T23:22:18.372Z,9.18
2022-11-16T23:25:03.953Z,11.35
2022-11-16T23:28:03.632Z,8.23
2022-11-16T23:30:30.308Z,8.50
2022-11-16T23:32:56.991Z,5.47
2022-11-16T23:35:23.705Z,4.50
2022-11-16T23:37:57.100Z,3.75
2022-11-16T23:40:26.800Z,4.10
2022-11-16T23:43:12.937Z,4.38
2022-11-16T23:45:40.818Z,4.38
2022-11-16T23:48:08.732Z,3.97
2022-11-16T23:50:35.864Z,5.63
2022-11-16T23:53:03.443Z,3.38
2022-11-16T23:55:32.889Z,4.75
2022-11-16T23:57:59.999Z,2.30
